createdAt,value
2019-03-12T00:00:00.970Z,59.99
2019-03-12T00:01:00.964Z,60.10
2019-03-12T00:02:00.951Z,59.99
2019-03-12T00:03:00.944Z,59.99
2019-03-12T00:04:01.094Z,60.10
2019-03-12T00:05:00.916Z,60.19
2019-03-12T00:06:00.908Z,60.10
2019-03-12T00:07:00.897Z,59.89
2019-03-12T00:08:00.884Z,59.82
2019-03-12T00:09:00.875Z,59.99
2019-03-12T00:10:00.975Z,60.12
2019-03-12T00:11:00.857Z,59.89
2019-03-12T00:12:00.850Z,59.79
2019-03-12T00:13:00.838Z,59.79
2019-03-12T00:14:00.822Z,59.99
2019-03-12T00:15:00.808Z,59.89
2019-03-12T00:16:00.902Z,60.02
2019-03-12T00:17:00.786Z,59.99
2019-03-12T00:18:00.781Z,60.10
2019-03-12T00:19:00.764Z,59.99
2019-03-12T00:20:00.756Z,59.79
2019-03-12T00:21:00.742Z,59.99
2019-03-12T00:22:00.944Z,60.10
2019-03-12T00:23:00.722Z,59.99
2019-03-12T00:24:00.710Z,59.99
2019-03-12T00:25:00.707Z,59.99
2019-03-12T00:26:00.693Z,60.19
2019-03-12T00:27:00.681Z,59.99
2019-03-12T00:28:00.834Z,60.02
2019-03-12T00:29:00.659Z,59.99
2019-03-12T00:30:00.659Z,59.79
2019-03-12T00:31:00.638Z,59.99
2019-03-12T00:32:00.625Z,60.02
2019-03-12T00:33:00.613Z,60.19
2019-03-12T00:34:00.713Z,60.10
2019-03-12T00:35:00.600Z,60.10
2019-03-12T00:36:00.581Z,59.99
2019-03-12T00:37:00.570Z,59.89
2019-03-12T00:38:00.562Z,59.99
2019-03-12T00:39:00.548Z,60.19
2019-03-12T00:40:00.668Z,59.82
2019-03-12T00:41:00.530Z,60.19
2019-03-12T00:42:00.518Z,59.79
2019-03-12T00:43:00.507Z,60.10
2019-03-12T00:44:00.496Z,59.99
2019-03-12T00:45:00.526Z,59.82
2019-03-12T00:46:00.583Z,60.19
2019-03-12T00:47:00.461Z,60.19
2019-03-12T00:48:00.451Z,60.10
2019-03-12T00:49:00.443Z,60.19
2019-03-12T00:50:00.448Z,60.10
2019-03-12T00:51:00.429Z,60.10
2019-03-12T00:52:00.734Z,59.79
2019-03-12T00:53:00.398Z,59.82
2019-03-12T00:54:00.396Z,60.10
2019-03-12T00:55:00.403Z,60.19
2019-03-12T00:56:00.371Z,60.12
2019-03-12T00:57:00.360Z,60.02
2019-03-12T00:58:00.441Z,60.19
2019-03-12T00:59:00.334Z,59.82
2019-03-12T01:00:00.439Z,59.82
2019-03-12T01:01:00.333Z,60.22
2019-03-12T01:02:00.303Z,59.99
2019-03-12T01:03:00.291Z,60.22
2019-03-12T01:04:00.384Z,60.10
2019-03-12T01:05:00.376Z,60.22
2019-03-12T01:06:00.267Z,60.02
2019-03-12T01:07:00.251Z,59.99
2019-03-12T01:08:00.236Z,60.10
2019-03-12T01:09:00.220Z,59.99
2019-03-12T01:10:00.480Z,60.19
2019-03-12T01:11:00.197Z,60.02
2019-03-12T01:12:00.189Z,59.82
2019-03-12T01:13:00.179Z,60.19
2019-03-12T01:14:00.167Z,59.79
2019-03-12T01:15:00.373Z,60.10
2019-03-12T01:16:00.245Z,60.10
2019-03-12T01:17:00.190Z,59.79
2019-03-12T01:18:00.124Z,60.12
2019-03-12T01:19:00.116Z,60.19
2019-03-12T01:20:00.196Z,59.79
2019-03-12T01:21:00.091Z,60.19
2019-03-12T01:22:00.176Z,60.22
2019-03-12T01:23:00.071Z,59.92
2019-03-12T01:24:00.074Z,59.79
2019-03-12T01:25:00.049Z,59.82
2019-03-12T01:26:00.037Z,60.10
2019-03-12T01:27:00.025Z,60.02
2019-03-12T01:28:00.188Z,60.22
2019-03-12T01:29:00.002Z,60.02
2019-03-12T01:29:59.993Z,59.79
2019-03-12T01:30:59.984Z,59.79
2019-03-12T01:31:59.973Z,59.82
2019-03-12T01:32:59.960Z,60.02
2019-03-12T01:34:00.041Z,60.19
2019-03-12T01:34:59.964Z,60.19
2019-03-12T01:35:59.928Z,59.92
2019-03-12T01:36:59.918Z,60.22
2019-03-12T01:37:59.908Z,59.92
2019-03-12T01:38:59.896Z,60.12
2019-03-12T01:39:59.984Z,60.02
2019-03-12T01:40:59.880Z,60.22
2019-03-12T01:41:59.864Z,59.82
2019-03-12T01:42:59.855Z,60.02
2019-03-12T01:43:59.849Z,59.92
2019-03-12T01:44:59.832Z,59.82
2019-03-12T01:46:00.056Z,60.22
2019-03-12T01:46:59.812Z,59.82
2019-03-12T01:47:59.797Z,60.22
2019-03-12T01:48:59.796Z,60.22
2019-03-12T01:49:59.774Z,60.22
2019-03-12T01:50:59.844Z,59.79
2019-03-12T01:51:59.926Z,60.22
2019-03-12T01:52:59.745Z,59.82
2019-03-12T01:53:59.736Z,60.22
2019-03-12T01:54:59.722Z,60.22
2019-03-12T01:55:59.710Z,60.19
2019-03-12T01:56:59.700Z,60.22
2019-03-12T01:57:59.791Z,60.22
2019-03-12T01:58:59.684Z,60.02
2019-03-12T01:59:59.669Z,60.22
2019-03-12T02:00:59.657Z,60.02
2019-03-12T02:01:59.645Z,60.02
2019-03-12T02:02:59.636Z,60.22
2019-03-12T02:03:59.722Z,60.22
2019-03-12T02:04:59.627Z,60.02
2019-03-12T02:05:59.602Z,60.12
2019-03-12T02:06:59.592Z,60.02
2019-03-12T02:07:59.588Z,60.22
2019-03-12T02:08:59.570Z,60.02
2019-03-12T02:09:59.833Z,60.02
2019-03-12T02:10:59.556Z,60.32
2019-03-12T02:11:59.540Z,59.82
2019-03-12T02:12:59.527Z,60.42
2019-03-12T02:13:59.514Z,60.02
2019-03-12T02:14:59.504Z,60.22
2019-03-12T02:15:59.600Z,60.42
2019-03-12T02:16:59.485Z,60.52
2019-03-12T02:17:59.471Z,60.42
2019-03-12T02:18:59.461Z,60.32
2019-03-12T02:19:59.457Z,59.72
2019-03-12T02:20:59.444Z,60.32
2019-03-12T02:21:59.537Z,60.02
2019-03-12T02:22:59.419Z,60.12
2019-03-12T02:23:59.410Z,60.32
2019-03-12T02:24:59.469Z,60.42
2019-03-12T02:25:59.392Z,60.52
2019-03-12T02:26:59.379Z,60.42
2019-03-12T02:27:59.640Z,60.62
2019-03-12T02:28:59.358Z,60.12
2019-03-12T02:29:59.340Z,60.42
2019-03-12T02:30:59.331Z,60.12
2019-03-12T02:31:59.322Z,60.02
2019-03-12T02:32:59.312Z,60.12
2019-03-12T02:33:59.512Z,60.02
2019-03-12T02:34:59.418Z,60.42
2019-03-12T02:35:59.280Z,60.02
2019-03-12T02:36:59.271Z,60.02
2019-03-12T02:37:59.261Z,59.62
2019-03-12T02:38:59.251Z,60.02
2019-03-12T02:39:59.343Z,60.22
2019-03-12T02:40:59.228Z,60.02
2019-03-12T02:41:59.231Z,60.22
2019-03-12T02:42:59.204Z,60.02
2019-03-12T02:43:59.217Z,60.32
2019-03-12T02:44:59.189Z,60.32
2019-03-12T02:45:59.295Z,60.32
2019-03-12T02:46:59.178Z,60.12
2019-03-12T02:47:59.205Z,60.32
2019-03-12T02:48:59.152Z,60.32
2019-03-12T02:49:59.163Z,60.02
2019-03-12T02:50:59.139Z,60.42
2019-03-12T02:51:59.278Z,60.02
2019-03-12T02:52:59.110Z,59.82
2019-03-12T02:53:59.090Z,60.02
2019-03-12T02:54:59.109Z,60.22
2019-03-12T02:56:01.733Z,60.25
2019-03-12T02:56:59.069Z,59.82
2019-03-12T02:57:59.160Z,60.22
2019-03-12T02:58:59.039Z,60.15
2019-03-12T02:59:59.022Z,60.22
2019-03-12T03:00:59.025Z,60.12
2019-03-12T03:01:59.001Z,59.82
2019-03-12T03:02:58.990Z,59.72
2019-03-12T03:03:59.084Z,60.22
2019-03-12T03:04:58.980Z,60.25
2019-03-12T03:05:58.962Z,60.22
2019-03-12T03:06:58.996Z,60.25
2019-03-12T03:07:58.937Z,60.25
2019-03-12T03:08:58.927Z,60.25
2019-03-12T03:09:59.438Z,60.22
2019-03-12T03:10:58.921Z,60.25
2019-03-12T03:11:58.929Z,60.25
2019-03-12T03:12:58.919Z,59.95
2019-03-12T03:13:58.877Z,60.22
2019-03-12T03:14:58.886Z,60.05
2019-03-12T03:15:59.008Z,60.15
2019-03-12T03:16:58.935Z,60.22
2019-03-12T03:17:58.895Z,59.85
2019-03-12T03:18:58.825Z,60.15
2019-03-12T03:19:58.809Z,60.12
2019-03-12T03:20:58.798Z,59.95
2019-03-12T03:21:58.881Z,60.05
2019-03-12T03:22:58.788Z,60.15
2019-03-12T03:23:58.763Z,60.35
2019-03-12T03:24:58.748Z,59.85
2019-03-12T03:25:58.743Z,60.25
2019-03-12T03:26:58.730Z,60.05
2019-03-12T03:27:58.834Z,59.85
2019-03-12T03:28:58.731Z,60.35
2019-03-12T03:29:58.698Z,59.95
2019-03-12T03:30:59.471Z,59.95
2019-03-12T03:31:58.695Z,60.25
2019-03-12T03:32:58.677Z,60.15
2019-03-12T03:33:59.031Z,59.95
2019-03-12T03:34:58.645Z,59.95
2019-03-12T03:35:58.631Z,60.05
2019-03-12T03:36:58.626Z,60.15
2019-03-12T03:37:58.617Z,59.75
2019-03-12T03:38:58.608Z,59.85
2019-03-12T03:39:58.779Z,60.15
2019-03-12T03:40:58.580Z,60.25
2019-03-12T03:41:58.567Z,60.05
2019-03-12T03:42:58.567Z,60.05
2019-03-12T03:43:58.561Z,60.45
2019-03-12T03:44:58.548Z,59.75
2019-03-12T03:45:58.639Z,59.62
2019-03-12T03:46:59.423Z,59.75
2019-03-12T03:47:58.507Z,59.95
2019-03-12T03:48:58.494Z,59.65
2019-03-12T03:49:58.484Z,59.95
2019-03-12T03:50:58.470Z,59.95
2019-03-12T03:51:58.727Z,60.35
2019-03-12T03:52:58.462Z,60.25
2019-03-12T03:53:58.442Z,59.95
2019-03-12T03:54:58.479Z,59.92
2019-03-12T03:55:58.423Z,60.05
2019-03-12T03:56:58.436Z,60.05
2019-03-12T03:57:58.494Z,59.05
2019-03-12T03:58:58.401Z,59.75
2019-03-12T03:59:58.395Z,59.95
2019-03-12T04:00:58.379Z,60.15
2019-03-12T04:01:58.351Z,60.05
2019-03-12T04:02:58.338Z,59.95
2019-03-12T04:03:58.429Z,59.82
2019-03-12T04:04:58.336Z,59.85
2019-03-12T04:05:58.315Z,59.42
2019-03-12T04:06:58.299Z,59.22
2019-03-12T04:07:58.296Z,59.32
2019-03-12T04:08:58.286Z,59.35
2019-03-12T04:09:58.576Z,59.52
2019-03-12T04:10:58.259Z,59.42
2019-03-12T04:11:58.281Z,59.45
2019-03-12T04:12:58.231Z,59.45
2019-03-12T04:13:58.251Z,59.22
2019-03-12T04:14:58.237Z,59.42
2019-03-12T04:15:58.307Z,59.55
2019-03-12T04:16:58.252Z,59.45
2019-03-12T04:17:58.184Z,59.35
2019-03-12T04:18:58.166Z,59.45
2019-03-12T04:19:58.167Z,59.55
2019-03-12T04:20:58.153Z,59.55
2019-03-12T04:21:58.240Z,59.62
2019-03-12T04:22:58.128Z,59.55
2019-03-12T04:23:58.112Z,59.55
2019-03-12T04:24:58.126Z,59.85
2019-03-12T04:25:58.113Z,59.45
2019-03-12T04:26:58.088Z,59.82
2019-03-12T04:27:58.278Z,59.95
2019-03-12T04:28:58.102Z,59.25
2019-03-12T04:29:58.047Z,59.22
2019-03-12T04:30:58.051Z,59.75
2019-03-12T04:31:58.032Z,59.32
2019-03-12T04:32:58.014Z,59.95
2019-03-12T04:33:58.113Z,59.72
2019-03-12T04:34:57.996Z,59.25
2019-03-12T04:35:57.992Z,59.75
2019-03-12T04:36:57.980Z,59.35
2019-03-12T04:37:57.963Z,59.42
2019-03-12T04:38:57.951Z,59.32
2019-03-12T04:39:58.038Z,59.75
2019-03-12T04:40:57.940Z,59.65
2019-03-12T04:41:57.949Z,59.65
2019-03-12T04:42:57.913Z,59.62
2019-03-12T04:43:57.895Z,59.62
2019-03-12T04:44:57.906Z,59.62
2019-03-12T04:45:58.140Z,59.62
2019-03-12T04:46:57.875Z,59.65
2019-03-12T04:47:57.861Z,59.95
2019-03-12T04:48:57.841Z,59.12
2019-03-12T04:49:57.847Z,58.82
2019-03-12T04:50:57.820Z,59.52
2019-03-12T04:51:57.995Z,59.42
2019-03-12T04:52:57.800Z,59.72
2019-03-12T04:53:57.792Z,58.82
2019-03-12T04:54:57.816Z,59.55
2019-03-12T04:55:57.768Z,58.92
2019-03-12T04:56:57.771Z,58.72
2019-03-12T04:57:57.863Z,59.12
2019-03-12T04:58:57.734Z,59.12
2019-03-12T04:59:57.728Z,59.12
2019-03-12T05:00:57.731Z,59.32
2019-03-12T05:01:57.707Z,58.92
2019-03-12T05:02:57.703Z,59.42
2019-03-12T05:03:58.032Z,59.22
2019-03-12T05:04:57.669Z,58.62
2019-03-12T05:05:57.661Z,59.42
2019-03-12T05:06:58.422Z,59.42
2019-03-12T05:07:57.646Z,59.42
2019-03-12T05:08:57.627Z,59.42
2019-03-12T05:09:57.806Z,59.22
2019-03-12T05:10:57.612Z,59.42
2019-03-12T05:11:57.616Z,59.42
2019-03-12T05:12:57.595Z,59.32
2019-03-12T05:13:57.607Z,59.02
2019-03-12T05:14:57.583Z,58.82
2019-03-12T05:15:57.657Z,59.02
2019-03-12T05:16:57.541Z,59.22
2019-03-12T05:17:57.543Z,58.62
2019-03-12T05:18:57.520Z,59.12
2019-03-12T05:19:57.508Z,58.92
2019-03-12T05:20:57.511Z,59.09
2019-03-12T05:21:57.804Z,59.22
2019-03-12T05:22:57.496Z,59.12
2019-03-12T05:23:57.470Z,59.22
2019-03-12T05:24:57.471Z,59.22
2019-03-12T05:25:57.448Z,58.89
2019-03-12T05:26:57.438Z,59.09
2019-03-12T05:27:57.529Z,58.49
2019-03-12T05:28:57.419Z,58.80
2019-03-12T05:29:57.407Z,58.72
2019-03-12T05:30:57.391Z,58.22
2019-03-12T05:31:57.388Z,58.49
2019-03-12T05:32:57.381Z,58.29
2019-03-12T05:33:57.456Z,58.29
2019-03-12T05:34:57.390Z,58.29
2019-03-12T05:35:57.340Z,58.19
2019-03-12T05:36:57.342Z,58.49
2019-03-12T05:37:57.329Z,59.09
2019-03-12T05:38:57.317Z,58.69
2019-03-12T05:39:58.442Z,59.09
2019-03-12T05:40:57.288Z,58.89
2019-03-12T05:41:57.280Z,58.99
2019-03-12T05:42:57.265Z,59.09
2019-03-12T05:43:57.258Z,58.09
2019-03-12T05:44:57.245Z,58.39
2019-03-12T05:45:57.345Z,58.49
2019-03-12T05:46:57.223Z,58.29
2019-03-12T05:47:57.212Z,58.49
2019-03-12T05:48:57.203Z,58.29
2019-03-12T05:49:57.195Z,58.29
2019-03-12T05:50:57.179Z,58.39
2019-03-12T05:51:57.277Z,58.39
2019-03-12T05:52:57.157Z,58.19
2019-03-12T05:53:57.165Z,58.29
2019-03-12T05:54:57.142Z,58.29
2019-03-12T05:55:57.134Z,58.39
2019-03-12T05:56:57.110Z,58.19
2019-03-12T05:57:57.426Z,58.39
2019-03-12T05:58:57.090Z,58.29
2019-03-12T05:59:57.092Z,58.39
2019-03-12T06:00:57.098Z,58.29
2019-03-12T06:01:57.059Z,58.39
2019-03-12T06:02:57.107Z,58.39
2019-03-12T06:03:57.314Z,59.09
2019-03-12T06:04:57.036Z,58.39
2019-03-12T06:05:57.021Z,58.39
2019-03-12T06:06:57.005Z,58.19
2019-03-12T06:07:57.006Z,58.49
2019-03-12T06:08:56.985Z,58.97
2019-03-12T06:09:57.154Z,58.80
2019-03-12T06:10:56.968Z,58.89
2019-03-12T06:11:56.959Z,58.37
2019-03-12T06:12:56.945Z,58.19
2019-03-12T06:13:56.956Z,58.76
2019-03-12T06:14:56.926Z,58.69
2019-03-12T06:15:57.182Z,58.59
2019-03-12T06:16:56.904Z,58.67
2019-03-12T06:17:56.903Z,58.56
2019-03-12T06:18:57.846Z,58.56
2019-03-12T06:19:56.872Z,58.39
2019-03-12T06:20:56.870Z,58.37
2019-03-12T06:21:57.036Z,58.37
2019-03-12T06:22:56.835Z,58.37
2019-03-12T06:23:57.823Z,58.26
2019-03-12T06:24:56.850Z,58.17
2019-03-12T06:25:56.807Z,58.47
2019-03-12T06:26:56.827Z,58.56
2019-03-12T06:27:56.966Z,58.37
2019-03-12T06:28:56.863Z,58.47
2019-03-12T06:29:57.423Z,58.26
2019-03-12T06:30:56.758Z,58.37
2019-03-12T06:31:56.748Z,58.97
2019-03-12T06:32:59.425Z,58.56
2019-03-12T06:33:57.090Z,58.76
2019-03-12T06:34:56.710Z,58.76
2019-03-12T06:35:56.705Z,58.76
2019-03-12T06:36:57.316Z,59.04
2019-03-12T06:37:56.674Z,57.97
2019-03-12T06:38:56.657Z,57.87
2019-03-12T06:39:57.421Z,57.93
2019-03-12T06:40:56.639Z,58.24
2019-03-12T06:41:56.633Z,58.14
2019-03-12T06:42:56.624Z,57.64
2019-03-12T06:43:57.816Z,57.64
2019-03-12T06:44:56.603Z,57.84
2019-03-12T06:45:56.699Z,57.74
2019-03-12T06:46:56.586Z,57.84
2019-03-12T06:47:56.573Z,57.84
2019-03-12T06:48:56.556Z,57.54
2019-03-12T06:49:57.435Z,57.81
2019-03-12T06:50:56.533Z,57.93
2019-03-12T06:51:56.945Z,57.93
2019-03-12T06:52:56.522Z,57.84
2019-03-12T06:53:56.499Z,57.51
2019-03-12T06:54:56.488Z,57.51
2019-03-12T06:55:56.477Z,57.81
2019-03-12T06:56:56.466Z,57.51
2019-03-12T06:57:56.560Z,57.81
2019-03-12T06:58:56.452Z,57.41
2019-03-12T06:59:56.453Z,57.41
2019-03-12T07:00:56.423Z,58.01
2019-03-12T07:01:56.442Z,58.01
2019-03-12T07:02:56.408Z,57.51
2019-03-12T07:03:56.497Z,57.41
2019-03-12T07:04:56.378Z,57.41
2019-03-12T07:05:56.368Z,57.51
2019-03-12T07:06:56.365Z,57.51
2019-03-12T07:07:56.353Z,57.71
2019-03-12T07:08:56.340Z,57.91
2019-03-12T07:09:56.494Z,57.71
2019-03-12T07:10:56.320Z,57.81
2019-03-12T07:11:56.307Z,57.81
2019-03-12T07:12:56.299Z,57.81
2019-03-12T07:13:56.293Z,57.81
2019-03-12T07:14:56.270Z,57.61
2019-03-12T07:15:56.513Z,57.91
2019-03-12T07:16:56.250Z,57.81
2019-03-12T07:17:56.243Z,57.81
2019-03-12T07:18:56.228Z,57.81
2019-03-12T07:19:56.217Z,57.61
2019-03-12T07:20:56.208Z,57.81
2019-03-12T07:21:56.302Z,57.81
2019-03-12T07:22:56.184Z,57.81
2019-03-12T07:23:56.174Z,57.61
2019-03-12T07:24:56.164Z,57.91
2019-03-12T07:25:56.151Z,57.81
2019-03-12T07:26:56.160Z,57.81
2019-03-12T07:27:56.307Z,57.78
2019-03-12T07:28:56.127Z,57.81
2019-03-12T07:29:56.117Z,57.91
2019-03-12T07:30:56.098Z,57.48
2019-03-12T07:31:56.091Z,57.31
2019-03-12T07:32:56.532Z,57.88
2019-03-12T07:33:56.375Z,57.78
2019-03-12T07:34:56.065Z,57.28
2019-03-12T07:35:56.042Z,57.39
2019-03-12T07:36:56.033Z,57.39
2019-03-12T07:37:56.022Z,57.39
2019-03-12T07:38:56.011Z,57.58
2019-03-12T07:39:56.132Z,57.88
2019-03-12T07:40:55.990Z,57.39
2019-03-12T07:41:55.980Z,57.51
2019-03-12T07:42:55.972Z,57.48
2019-03-12T07:43:55.957Z,57.39
2019-03-12T07:44:55.951Z,57.48
2019-03-12T07:45:56.046Z,57.48
2019-03-12T07:46:55.925Z,57.48
2019-03-12T07:47:55.913Z,57.58
2019-03-12T07:48:55.907Z,57.78
2019-03-12T07:49:55.899Z,57.68
2019-03-12T07:50:55.887Z,57.58
2019-03-12T07:51:55.967Z,57.65
2019-03-12T07:52:55.862Z,57.88
2019-03-12T07:53:59.715Z,57.78
2019-03-12T07:54:55.878Z,57.78
2019-03-12T07:55:55.825Z,57.58
2019-03-12T07:56:55.815Z,57.15
2019-03-12T07:57:55.929Z,57.39
2019-03-12T07:58:55.792Z,57.65
2019-03-12T07:59:55.782Z,57.26
2019-03-12T08:00:55.770Z,57.68
2019-03-12T08:01:55.761Z,57.35
2019-03-12T08:02:55.750Z,57.18
2019-03-12T08:03:58.949Z,57.48
2019-03-12T08:04:55.730Z,57.46
2019-03-12T08:05:55.720Z,57.35
2019-03-12T08:06:55.709Z,57.26
2019-03-12T08:07:55.702Z,57.39
2019-03-12T08:08:55.709Z,57.35
2019-03-12T08:09:55.845Z,57.35
2019-03-12T08:10:55.670Z,56.96
2019-03-12T08:11:55.661Z,57.15
2019-03-12T08:12:55.643Z,57.35
2019-03-12T08:13:55.631Z,57.06
2019-03-12T08:14:55.623Z,57.06
2019-03-12T08:15:55.710Z,57.26
2019-03-12T08:16:55.610Z,57.15
2019-03-12T08:17:55.587Z,57.06
2019-03-12T08:18:55.579Z,57.06
2019-03-12T08:19:55.565Z,56.85
2019-03-12T08:20:55.556Z,56.85
2019-03-12T08:21:55.820Z,56.66
2019-03-12T08:22:55.540Z,56.76
2019-03-12T08:23:55.593Z,56.66
2019-03-12T08:24:55.512Z,56.56
2019-03-12T08:25:55.502Z,56.85
2019-03-12T08:26:55.494Z,56.96
2019-03-12T08:27:55.589Z,56.85
2019-03-12T08:28:55.469Z,56.96
2019-03-12T08:29:55.461Z,56.85
2019-03-12T08:30:55.448Z,56.96
2019-03-12T08:31:55.445Z,56.85
2019-03-12T08:32:55.431Z,56.73
2019-03-12T08:33:55.720Z,57.03
2019-03-12T08:34:55.409Z,56.85
2019-03-12T08:35:55.399Z,56.83
2019-03-12T08:36:55.396Z,56.83
2019-03-12T08:37:55.380Z,56.83
2019-03-12T08:38:55.364Z,56.83
2019-03-12T08:39:55.568Z,56.73
2019-03-12T08:40:55.345Z,56.83
2019-03-12T08:41:55.327Z,56.83
2019-03-12T08:42:55.326Z,56.83
2019-03-12T08:43:55.339Z,56.93
2019-03-12T08:44:55.298Z,56.93
2019-03-12T08:45:55.402Z,56.93
2019-03-12T08:46:55.281Z,56.93
2019-03-12T08:47:55.266Z,56.93
2019-03-12T08:48:55.257Z,57.13
2019-03-12T08:49:55.242Z,57.03
2019-03-12T08:50:55.232Z,56.93
2019-03-12T08:51:55.347Z,57.03
2019-03-12T08:52:55.211Z,56.93
2019-03-12T08:53:55.203Z,56.83
2019-03-12T08:54:55.190Z,56.93
2019-03-12T08:55:55.177Z,56.83
2019-03-12T08:56:55.173Z,56.73
2019-03-12T08:57:55.347Z,56.73
2019-03-12T08:58:55.161Z,57.13
2019-03-12T08:59:55.132Z,56.93
2019-03-12T09:00:55.122Z,56.90
2019-03-12T09:01:55.142Z,56.43
2019-03-12T09:02:55.103Z,56.51
2019-03-12T09:03:55.207Z,56.33
2019-03-12T09:04:55.099Z,56.43
2019-03-12T09:05:55.070Z,56.40
2019-03-12T09:06:55.064Z,56.30
2019-03-12T09:07:55.049Z,56.60
2019-03-12T09:08:55.038Z,56.60
2019-03-12T09:09:55.339Z,56.51
2019-03-12T09:10:55.014Z,56.60
2019-03-12T09:11:55.007Z,56.40
2019-03-12T09:12:55.000Z,56.51
2019-03-12T09:13:54.988Z,56.60
2019-03-12T09:14:54.974Z,56.60
2019-03-12T09:15:55.242Z,56.81
2019-03-12T09:16:54.958Z,56.70
2019-03-12T09:17:54.946Z,56.81
2019-03-12T09:18:54.940Z,56.60
2019-03-12T09:19:54.923Z,56.51
2019-03-12T09:20:54.909Z,56.40
2019-03-12T09:21:54.996Z,56.90
2019-03-12T09:22:54.906Z,57.03
2019-03-12T09:23:54.893Z,56.93
2019-03-12T09:24:54.874Z,57.33
2019-03-12T09:25:54.853Z,57.23
2019-03-12T09:26:54.843Z,57.46
2019-03-12T09:27:54.948Z,57.46
2019-03-12T09:28:54.824Z,57.43
2019-03-12T09:29:54.811Z,57.26
2019-03-12T09:30:54.800Z,57.35
2019-03-12T09:31:54.791Z,57.35
2019-03-12T09:32:54.793Z,57.46
2019-03-12T09:33:55.040Z,57.35
2019-03-12T09:34:54.763Z,57.26
2019-03-12T09:35:54.748Z,57.13
2019-03-12T09:36:54.766Z,57.26
2019-03-12T09:37:54.752Z,56.96
2019-03-12T09:38:54.718Z,56.96
2019-03-12T09:39:54.813Z,57.13
2019-03-12T09:40:54.695Z,56.73
2019-03-12T09:41:54.689Z,56.83
2019-03-12T09:42:54.714Z,56.93
2019-03-12T09:43:54.665Z,56.93
2019-03-12T09:44:54.653Z,56.73
2019-03-12T09:45:54.738Z,56.83
2019-03-12T09:46:54.634Z,56.83
2019-03-12T09:47:54.655Z,56.93
2019-03-12T09:48:54.614Z,56.83
2019-03-12T09:49:54.616Z,56.83
2019-03-12T09:50:54.594Z,56.73
2019-03-12T09:51:54.827Z,56.73
2019-03-12T09:52:54.566Z,56.83
2019-03-12T09:53:54.560Z,56.96
2019-03-12T09:54:54.553Z,56.63
2019-03-12T09:55:54.533Z,56.93
2019-03-12T09:56:54.523Z,57.03
2019-03-12T09:57:54.787Z,56.83
2019-03-12T09:58:54.512Z,56.93
2019-03-12T09:59:54.494Z,56.93
2019-03-12T10:00:54.494Z,56.83
2019-03-12T10:01:54.470Z,57.03
2019-03-12T10:02:54.464Z,57.03
2019-03-12T10:03:54.605Z,56.43
2019-03-12T10:04:54.439Z,56.63
2019-03-12T10:05:54.427Z,56.63
2019-03-12T10:06:54.417Z,56.53
2019-03-12T10:07:54.411Z,56.53
2019-03-12T10:08:54.397Z,56.63
2019-03-12T10:09:54.550Z,56.63
2019-03-12T10:10:54.377Z,56.53
2019-03-12T10:11:54.371Z,56.53
2019-03-12T10:12:54.358Z,56.40
2019-03-12T10:13:54.343Z,56.60
2019-03-12T10:14:54.335Z,56.63
2019-03-12T10:15:54.440Z,56.51
2019-03-12T10:16:54.317Z,56.81
2019-03-12T10:17:54.300Z,56.70
2019-03-12T10:18:54.289Z,56.70
2019-03-12T10:19:54.283Z,56.60
2019-03-12T10:20:54.281Z,56.43
2019-03-12T10:21:54.446Z,56.93
2019-03-12T10:22:54.250Z,56.93
2019-03-12T10:23:54.235Z,56.83
2019-03-12T10:24:54.228Z,56.96
2019-03-12T10:25:54.221Z,56.96
2019-03-12T10:26:54.211Z,57.26
2019-03-12T10:27:54.525Z,57.06
2019-03-12T10:28:54.183Z,57.26
2019-03-12T10:29:54.170Z,57.46
2019-03-12T10:30:54.170Z,57.26
2019-03-12T10:31:54.148Z,57.35
2019-03-12T10:32:54.139Z,56.96
2019-03-12T10:33:54.233Z,57.06
2019-03-12T10:34:54.119Z,57.06
2019-03-12T10:35:54.123Z,56.83
2019-03-12T10:36:54.097Z,56.93
2019-03-12T10:37:54.086Z,57.03
2019-03-12T10:38:54.074Z,56.33
2019-03-12T10:39:54.342Z,56.53
2019-03-12T10:40:54.053Z,56.60
2019-03-12T10:41:54.045Z,56.70
2019-03-12T10:42:54.033Z,56.81
2019-03-12T10:43:55.450Z,56.81
2019-03-12T10:44:54.012Z,56.18
2019-03-12T10:45:54.135Z,56.40
2019-03-12T10:46:53.989Z,56.51
2019-03-12T10:47:53.982Z,56.70
2019-03-12T10:48:53.969Z,56.51
2019-03-12T10:49:53.957Z,56.90
2019-03-12T10:50:53.975Z,56.83
2019-03-12T10:51:54.034Z,56.93
2019-03-12T10:52:53.934Z,56.81
2019-03-12T10:53:53.915Z,56.73
2019-03-12T10:54:53.901Z,56.83
2019-03-12T10:55:53.914Z,56.83
2019-03-12T10:56:53.908Z,56.93
2019-03-12T10:57:54.032Z,57.03
2019-03-12T10:58:53.867Z,57.00
2019-03-12T10:59:53.857Z,56.90
2019-03-12T11:00:53.838Z,56.81
2019-03-12T11:01:53.855Z,56.90
2019-03-12T11:02:53.834Z,56.90
2019-03-12T11:03:53.912Z,56.90
2019-03-12T11:04:53.796Z,56.90
2019-03-12T11:05:53.787Z,56.90
2019-03-12T11:06:53.776Z,56.60
2019-03-12T11:07:53.830Z,56.81
2019-03-12T11:08:53.755Z,56.70
2019-03-12T11:09:53.841Z,56.70
2019-03-12T11:10:53.822Z,56.60
2019-03-12T11:11:53.727Z,56.90
2019-03-12T11:12:53.717Z,56.81
2019-03-12T11:13:53.698Z,56.60
2019-03-12T11:14:53.686Z,56.81
2019-03-12T11:15:53.859Z,56.81
2019-03-12T11:16:53.700Z,56.60
2019-03-12T11:17:53.653Z,56.70
2019-03-12T11:18:53.643Z,56.81
2019-03-12T11:19:53.634Z,56.77
2019-03-12T11:20:53.622Z,56.90
2019-03-12T11:21:53.711Z,56.77
2019-03-12T11:22:53.607Z,56.77
2019-03-12T11:23:53.590Z,56.51
2019-03-12T11:24:53.578Z,56.90
2019-03-12T11:25:53.583Z,56.87
2019-03-12T11:26:53.558Z,56.48
2019-03-12T11:27:53.646Z,56.87
2019-03-12T11:28:53.539Z,56.38
2019-03-12T11:29:53.526Z,56.27
2019-03-12T11:30:53.513Z,56.48
2019-03-12T11:31:53.517Z,56.48
2019-03-12T11:32:53.497Z,56.48
2019-03-12T11:33:53.766Z,56.77
2019-03-12T11:34:53.481Z,56.57
2019-03-12T11:35:53.562Z,56.57
2019-03-12T11:36:53.472Z,56.55
2019-03-12T11:37:53.443Z,56.48
2019-03-12T11:38:53.451Z,56.55
2019-03-12T11:39:53.641Z,56.55
2019-03-12T11:40:53.403Z,56.55
2019-03-12T11:41:53.394Z,56.65
2019-03-12T11:42:53.382Z,56.75
2019-03-12T11:43:53.372Z,56.55
2019-03-12T11:44:53.373Z,56.75
2019-03-12T11:45:53.473Z,56.55
2019-03-12T11:46:53.340Z,56.55
2019-03-12T11:47:53.327Z,56.52
2019-03-12T11:48:53.329Z,56.42
2019-03-12T11:49:53.329Z,56.75
2019-03-12T11:50:53.303Z,56.45
2019-03-12T11:51:53.386Z,56.52
2019-03-12T11:52:56.872Z,56.42
2019-03-12T11:53:54.283Z,56.32
2019-03-12T11:54:53.268Z,56.35
2019-03-12T11:55:53.248Z,56.85
2019-03-12T11:56:53.324Z,56.45
2019-03-12T11:57:53.348Z,56.72
2019-03-12T11:58:53.209Z,56.82
2019-03-12T11:59:53.220Z,56.85
2019-03-12T12:00:53.186Z,56.75
2019-03-12T12:01:53.178Z,56.75
2019-03-12T12:02:59.942Z,56.75
2019-03-12T12:03:54.280Z,56.65
2019-03-12T12:04:53.149Z,56.65
2019-03-12T12:05:53.142Z,56.75
2019-03-12T12:06:53.125Z,56.62
2019-03-12T12:07:53.429Z,56.65
2019-03-12T12:08:53.108Z,56.75
2019-03-12T12:09:53.206Z,57.15
2019-03-12T12:10:53.087Z,57.35
2019-03-12T12:11:53.072Z,56.95
2019-03-12T12:12:53.062Z,57.24
2019-03-12T12:13:53.050Z,57.24
2019-03-12T12:14:53.041Z,57.24
2019-03-12T12:15:53.227Z,57.24
2019-03-12T12:16:53.017Z,57.15
2019-03-12T12:17:53.010Z,57.15
2019-03-12T12:18:52.993Z,57.05
2019-03-12T12:19:52.983Z,57.15
2019-03-12T12:20:53.921Z,57.45
2019-03-12T12:21:53.062Z,57.54
2019-03-12T12:22:52.949Z,57.64
2019-03-12T12:23:52.943Z,57.54
2019-03-12T12:24:52.927Z,57.35
2019-03-12T12:25:52.927Z,57.35
2019-03-12T12:26:52.909Z,57.24
2019-03-12T12:27:53.002Z,57.64
2019-03-12T12:28:52.890Z,57.67
2019-03-12T12:29:52.884Z,57.67
2019-03-12T12:30:52.865Z,57.47
2019-03-12T12:31:52.862Z,58.34
2019-03-12T12:32:52.848Z,57.64
2019-03-12T12:33:53.020Z,57.67
2019-03-12T12:34:52.821Z,57.67
2019-03-12T12:35:52.818Z,57.77
2019-03-12T12:36:53.421Z,57.67
2019-03-12T12:37:52.808Z,58.57
2019-03-12T12:38:52.782Z,58.47
2019-03-12T12:39:53.035Z,58.27
2019-03-12T12:40:52.775Z,57.97
2019-03-12T12:41:52.753Z,58.07
2019-03-12T12:42:52.739Z,58.17
2019-03-12T12:43:52.751Z,58.20
2019-03-12T12:44:52.715Z,58.67
2019-03-12T12:45:52.828Z,58.57
2019-03-12T12:46:52.693Z,58.57
2019-03-12T12:47:52.684Z,57.97
2019-03-12T12:48:53.399Z,58.17
2019-03-12T12:49:52.661Z,57.97
2019-03-12T12:51:02.576Z,58.20
2019-03-12T12:51:53.756Z,57.90